Time,TemperatureF,DewpointF,PressureIn,WindDirection,WindDirectionDegrees,WindSpeedMPH,WindSpeedGustMPH,Humidity,HourlyPrecipIn,Conditions,Clouds,dailyrainin,SoftwareType,DateUTC
2013-09-22 00:11:00,63.0,57.0,29.68,NW,307,0.0,-999.0,81,-99.99,,,-99.99,,2013-09-22 07:11:00,
2013-09-22 00:21:00,63.0,57.0,29.68,NW,307,0.0,-999.0,81,-99.99,,,-99.99,,2013-09-22 07:21:00,
2013-09-22 00:52:00,63.0,57.0,29.68,NW,307,0.0,-999.0,81,-99.99,,,-99.99,,2013-09-22 07:52:00,
2013-09-22 01:11:00,63.0,57.0,29.67,NW,307,0.0,-999.0,81,-99.99,,,-99.99,,2013-09-22 08:11:00,
2013-09-22 01:22:00,63.0,57.0,29.67,NW,307,0.0,-999.0,81,-99.99,,,-99.99,,2013-09-22 08:22:00,
2013-09-22 01:52:00,62.0,56.0,29.67,NW,307,0.0,-999.0,80,-99.99,,,-99.99,,2013-09-22 08:52:00,
2013-09-22 02:11:00,61.0,55.0,29.67,NW,307,0.0,-999.0,80,-99.99,,,-99.99,,2013-09-22 09:11:00,
2013-09-22 02:21:00,60.0,54.0,29.67,NW,307,0.0,-999.0,81,-99.99,,,-99.99,,2013-09-22 09:21:00,
2013-09-22 02:53:00,59.0,54.0,29.66,NW,307,0.0,-999.0,83,-99.99,,,-99.99,,2013-09-22 09:53:00,
2013-09-22 03:12:00,58.0,53.0,29.66,NW,307,0.0,-999.0,83,-99.99,,,-99.99,,2013-09-22 10:12:00,
2013-09-22 03:23:00,57.0,52.0,29.67,NW,307,0.0,-999.0,82,-99.99,,,-99.99,,2013-09-22 10:23:00,
2013-09-22 03:44:00,57.0,52.0,29.66,NW,307,0.0,-999.0,84,-99.99,,,-99.99,,2013-09-22 10:44:00,
2013-09-22 03:53:00,57.0,53.0,29.67,NW,307,0.0,-999.0,85,-99.99,,,-99.99,,2013-09-22 10:53:00,
2013-09-22 04:22:00,56.0,52.0,29.67,NW,307,0.0,-999.0,86,-99.99,,,-99.99,,2013-09-22 11:22:00,
2013-09-22 04:52:00,56.0,52.0,29.67,NW,307,0.0,-999.0,85,-99.99,,,-99.99,,2013-09-22 11:52:00,
2013-09-22 05:12:00,55.0,51.0,29.67,NW,307,0.0,-999.0,86,-99.99,,,-99.99,,2013-09-22 12:12:00,
2013-09-22 05:21:00,55.0,51.0,29.67,NW,307,0.0,-999.0,86,-99.99,,,-99.99,,2013-09-22 12:21:00,
2013-09-22 05:42:00,55.0,51.0,29.67,NW,307,0.0,-999.0,85,-99.99,,,-99.99,,2013-09-22 12:42:00,
2013-09-22 05:52:00,54.0,50.0,29.68,NW,307,0.0,-999.0,85,-99.99,,,-99.99,,2013-09-22 12:52:00,
2013-09-22 06:12:00,54.0,50.0,29.69,NW,307,0.0,-999.0,85,-99.99,,,-99.99,,2013-09-22 13:12:00,
2013-09-22 06:21:00,54.0,49.0,29.69,NW,307,0.0,-999.0,84,-99.99,,,-99.99,,2013-09-22 13:21:00,
2013-09-22 06:52:00,53.0,48.0,29.70,NW,307,0.0,-999.0,84,-99.99,,,-99.99,,2013-09-22 13:52:00,
2013-09-22 07:11:00,53.0,48.0,29.71,NW,307,0.0,-999.0,83,-99.99,,,-99.99,,2013-09-22 14:11:00,
2013-09-22 07:22:00,53.0,47.0,29.71,NW,307,0.0,-999.0,81,-99.99,,,-99.99,,2013-09-22 14:22:00,
2013-09-22 07:52:00,53.0,46.0,29.71,NW,307,0.0,-999.0,77,-99.99,,,-99.99,,2013-09-22 14:52:00,
2013-09-22 08:12:00,53.0,46.0,29.71,NW,307,0.0,-999.0,78,-99.99,,,-99.99,,2013-09-22 15:12:00,
2013-09-22 08:23:00,55.0,51.0,29.71,ESE,110,0.0,-999.0,85,-99.99,,,-99.99,,2013-09-22 15:23:00,
2013-09-22 08:55:00,57.0,51.0,29.70,ESE,110,0.0,-999.0,80,-99.99,,,-99.99,,2013-09-22 15:55:00,
2013-09-22 09:23:00,61.0,52.0,29.71,ENE,60,0.0,-999.0,72,-99.99,,,-99.99,,2013-09-22 16:23:00,
2013-09-22 09:54:00,64.0,50.0,29.71,East,94,0.0,-999.0,60,-99.99,,,-99.99,,2013-09-22 16:54:00,
2013-09-22 10:22:00,69.0,51.0,29.71,ESE,107,0.0,-999.0,53,-99.99,,,-99.99,,2013-09-22 17:22:00,
2013-09-22 10:42:00,70.0,49.0,29.71,East,100,0.0,-999.0,48,-99.99,,,-99.99,,2013-09-22 17:42:00,
2013-09-22 10:53:00,71.0,49.0,29.71,NE,47,0.0,-999.0,45,-99.99,,,-99.99,,2013-09-22 17:53:00,
2013-09-22 11:12:00,73.0,50.0,29.71,NE,49,0.0,-999.0,45,-99.99,,,-99.99,,2013-09-22 18:12:00,
2013-09-22 11:22:00,75.0,48.0,29.71,ESE,109,0.0,-999.0,39,-99.99,,,-99.99,,2013-09-22 18:22:00,
2013-09-22 11:52:00,77.0,51.0,29.71,ESE,109,0.0,-999.0,40,-99.99,,,-99.99,,2013-09-22 18:52:00,
2013-09-22 12:11:00,77.0,51.0,29.71,East,95,0.0,-999.0,40,-99.99,,,-99.99,,2013-09-22 19:11:00,
2013-09-22 12:22:00,77.0,49.0,29.70,ENE,58,0.0,-999.0,37,-99.99,,,-99.99,,2013-09-22 19:22:00,
2013-09-22 12:52:00,79.0,50.0,29.69,East,101,0.0,-999.0,36,-99.99,,,-99.99,,2013-09-22 19:52:00,
2013-09-22 13:22:00,80.0,52.0,29.68,East,86,0.0,-999.0,38,-99.99,,,-99.99,,2013-09-22 20:22:00,
2013-09-22 13:52:00,78.0,51.0,29.67,ESE,103,1.0,-999.0,39,-99.99,,,-99.99,,2013-09-22 20:52:00,
2013-09-22 14:22:00,80.0,51.0,29.66,NE,44,0.0,-999.0,37,-99.99,,,-99.99,,2013-09-22 21:22:00,
2013-09-22 14:54:00,80.0,50.0,29.65,ESE,121,1.0,-999.0,35,-99.99,,,-99.99,,2013-09-22 21:54:00,
2013-09-22 15:14:00,81.0,51.0,29.65,NE,51,0.0,-999.0,35,-99.99,,,-99.99,,2013-09-22 22:14:00,
2013-09-22 15:24:00,81.0,51.0,29.65,NE,51,0.0,-999.0,35,-99.99,,,-99.99,,2013-09-22 22:24:00,
2013-09-22 15:32:00,82.0,50.0,29.64,ESE,111,0.0,-999.0,33,-99.99,,,-99.99,,2013-09-22 22:32:00,
2013-09-22 15:53:00,82.0,50.0,29.64,ESE,111,0.0,-999.0,33,-99.99,,,-99.99,,2013-09-22 22:53:00,
2013-09-22 16:03:00,82.0,50.0,29.64,ESE,111,0.0,-999.0,33,-99.99,,,-99.99,,2013-09-22 23:03:00,
2013-09-22 16:12:00,82.0,50.0,29.64,ESE,111,0.0,-999.0,33,-99.99,,,-99.99,,2013-09-22 23:12:00,
2013-09-22 16:22:00,82.0,50.0,29.64,ESE,111,0.0,-999.0,33,-99.99,,,-99.99,,2013-09-22 23:22:00,
2013-09-22 19:52:00,73.0,49.0,29.66,ESE,111,0.0,-999.0,43,-99.99,,,-99.99,,2013-09-23 02:52:00,
2013-09-22 20:12:00,71.0,48.0,29.66,ESE,111,0.0,-999.0,44,-99.99,,,-99.99,,2013-09-23 03:12:00,
2013-09-22 20:22:00,69.0,47.0,29.66,ESE,111,0.0,-999.0,46,-99.99,,,-99.99,,2013-09-23 03:22:00,
2013-09-22 20:54:00,67.0,47.0,29.67,ESE,111,0.0,-999.0,48,-99.99,,,-99.99,,2013-09-23 03:54:00,
2013-09-22 21:14:00,66.0,46.0,29.68,ESE,111,0.0,-999.0,48,-99.99,,,-99.99,,2013-09-23 04:14:00,
2013-09-22 21:24:00,66.0,46.0,29.68,ESE,111,0.0,-999.0,48,-99.99,,,-99.99,,2013-09-23 04:24:00,
2013-09-22 21:43:00,65.0,45.0,29.68,ESE,111,0.0,-999.0,49,-99.99,,,-99.99,,2013-09-23 04:43:00,
2013-09-22 21:54:00,64.0,44.0,29.69,ESE,111,0.0,-999.0,49,-99.99,,,-99.99,,2013-09-23 04:54:00,
2013-09-22 22:12:00,63.0,44.0,29.69,ESE,111,0.0,-999.0,49,-99.99,,,-99.99,,2013-09-23 05:12:00,
2013-09-22 22:22:00,63.0,44.0,29.68,ESE,111,0.0,-999.0,50,-99.99,,,-99.99,,2013-09-23 05:22:00,
2013-09-22 22:43:00,63.0,44.0,29.68,ESE,111,0.0,-999.0,49,-99.99,,,-99.99,,2013-09-23 05:43:00,
2013-09-22 22:53:00,62.0,43.0,29.69,ESE,111,0.0,-999.0,49,-99.99,,,-99.99,,2013-09-23 05:53:00,
2013-09-22 23:12:00,62.0,42.0,29.69,ESE,111,0.0,-999.0,48,-99.99,,,-99.99,,2013-09-23 06:12:00,
2013-09-22 23:22:00,62.0,42.0,29.69,ESE,111,0.0,-999.0,47,-99.99,,,-99.99,,2013-09-23 06:22:00,
2013-09-22 23:52:00,63.0,41.0,29.69,ESE,111,0.0,-999.0,44,-99.99,,,-99.99,,2013-09-23 06:52:00,